Time;durP1;ratioP1;P1;durP2;ratioP2;P2;SDS_P1;SDS_P2;PMS_P1;PMS_P2;Temp;Humidity;BMP_temperature;BMP_pressure;BME280_temperature;BME280_humidity;BME280_pressure;Samples;Min_cycle;Max_cycle;Signal;HPM_P1;HPM_P2
2022/01/06 00:01:55;;;;;;;;;;;6.80;82.70;;;;;;4933284;29;19914;-61
2022/01/06 00:04:20;;;;;;;;;;;6.80;82.70;;;;;;4918435;29;19978;-61
2022/01/06 00:06:46;;;;;;;;;;;6.80;82.70;;;;;;4937012;28;20334;-61
2022/01/06 00:09:15;;;;;;;;;;;6.80;82.60;;;;;;4944387;28;19910;-61
2022/01/06 00:11:40;;;;;;;;;;;6.80;82.60;;;;;;4930335;28;20282;-61
2022/01/06 00:14:57;;;;;;;;;;;6.80;82.70;;;;;;4949954;28;19910;-61
2022/01/06 00:24:46;;;;;;;;;;;6.80;82.50;;;;;;4962660;28;19917;-61
2022/01/06 00:27:11;;;;;;;;;;;6.90;82.70;;;;;;4934303;28;19910;-61
2022/01/06 00:29:37;;;;;;;;;;;6.80;82.60;;;;;;4934208;29;19956;-61
2022/01/06 00:32:02;;;;;;;;;;;6.70;82.40;;;;;;4949993;28;19944;-61
2022/01/06 00:34:28;;;;;;;;;;;6.70;82.60;;;;;;4932685;29;20347;-61
2022/01/06 00:36:54;;;;;;;;;;;6.70;82.60;;;;;;4916813;28;19911;-61
2022/01/06 00:39:20;;;;;;;;;;;6.70;82.60;;;;;;4949245;28;19910;-59
2022/01/06 00:41:45;;;;;;;;;;;6.70;82.70;;;;;;4935176;28;19933;-61
2022/01/06 00:44:11;;;;;;;;;;;6.70;82.80;;;;;;4948952;29;19910;-61
2022/01/06 00:46:36;;;;;;;;;;;6.70;82.80;;;;;;4918033;29;20294;-61
2022/01/06 00:49:02;;;;;;;;;;;6.70;82.90;;;;;;4930459;29;19978;-61
2022/01/06 00:51:27;;;;;;;;;;;6.70;82.90;;;;;;4945248;28;19943;-61
2022/01/06 00:53:53;;;;;;;;;;;6.70;82.90;;;;;;4944150;29;19911;-61
2022/01/06 00:56:18;;;;;;;;;;;6.70;83.00;;;;;;4915835;28;19914;-61
2022/01/06 00:58:44;;;;;;;;;;;6.70;83.10;;;;;;4947908;29;20254;-61
2022/01/06 01:01:09;;;;;;;;;;;6.60;83.10;;;;;;4947040;28;19922;-61
2022/01/06 01:03:35;;;;;;;;;;;6.70;83.30;;;;;;4935812;28;20331;-61
2022/01/06 01:06:01;;;;;;;;;;;6.70;83.20;;;;;;4951163;28;19969;-61
2022/01/06 01:08:28;;;;;;;;;;;6.60;83.10;;;;;;4946315;28;20202;-61
2022/01/06 01:10:54;;;;;;;;;;;6.60;83.30;;;;;;4950866;28;19914;-61
2022/01/06 01:13:27;;;;;;;;;;;6.60;83.30;;;;;;4928993;28;20360;-62
2022/01/06 01:15:55;;;;;;;;;;;6.60;83.40;;;;;;4934004;28;19975;-60
2022/01/06 01:18:21;;;;;;;;;;;6.60;83.40;;;;;;4947467;28;19973;-61
2022/01/06 01:20:47;;;;;;;;;;;6.60;83.40;;;;;;4927377;28;19915;-61
2022/01/06 01:23:12;;;;;;;;;;;6.60;83.60;;;;;;4933035;29;20020;-61
2022/01/06 01:25:38;;;;;;;;;;;6.60;83.70;;;;;;4932930;28;19946;-61
2022/01/06 01:28:04;;;;;;;;;;;6.60;83.70;;;;;;4945231;28;20078;-61
2022/01/06 01:30:32;;;;;;;;;;;6.60;83.90;;;;;;4942983;28;19918;-61
2022/01/06 01:32:59;;;;;;;;;;;6.60;84.00;;;;;;4917027;29;20008;-61
2022/01/06 01:35:24;;;;;;;;;;;6.60;84.10;;;;;;4951097;28;19969;-61
2022/01/06 01:37:50;;;;;;;;;;;6.60;84.20;;;;;;4915227;29;19910;-61
2022/01/06 01:40:15;;;;;;;;;;;6.60;84.40;;;;;;4933987;28;19918;-61
2022/01/06 01:42:41;;;;;;;;;;;6.60;84.40;;;;;;4933699;29;19957;-61
2022/01/06 01:45:06;;;;;;;;;;;6.60;84.50;;;;;;4916273;28;20463;-61
2022/01/06 01:47:39;;;;;;;;;;;6.60;84.50;;;;;;4932979;29;19946;-61
2022/01/06 01:50:12;;;;;;;;;;;6.60;84.60;;;;;;4944838;28;19918;-61
2022/01/06 01:52:58;;;;;;;;;;;6.50;84.60;;;;;;4932324;29;19914;-61
2022/01/06 01:55:24;;;;;;;;;;;6.50;84.50;;;;;;4956748;28;19910;-61
2022/01/06 01:57:50;;;;;;;;;;;6.50;84.50;;;;;;4968087;28;20021;-61
2022/01/06 02:00:16;;;;;;;;;;;6.50;84.60;;;;;;4932911;28;20005;-61
2022/01/06 02:02:41;;;;;;;;;;;6.50;84.80;;;;;;4933889;28;20408;-61
2022/01/06 02:05:07;;;;;;;;;;;6.50;84.80;;;;;;4933905;28;19914;-61
2022/01/06 02:07:33;;;;;;;;;;;6.50;84.80;;;;;;4935370;28;19917;-61
2022/01/06 02:09:58;;;;;;;;;;;6.50;84.90;;;;;;4956439;28;20358;-61
2022/01/06 02:12:29;;;;;;;;;;;6.50;84.90;;;;;;4934497;28;19946;-61
2022/01/06 02:14:55;;;;;;;;;;;6.50;84.90;;;;;;4942313;29;19914;-61
2022/01/06 02:17:20;;;;;;;;;;;6.50;84.90;;;;;;4914957;28;20422;-61
2022/01/06 02:19:53;;;;;;;;;;;6.50;85.00;;;;;;4930770;29;19918;-61
2022/01/06 02:22:19;;;;;;;;;;;6.50;85.50;;;;;;4932011;28;20005;-61
2022/01/06 02:24:44;;;;;;;;;;;6.50;85.00;;;;;;4961191;28;20009;-61
2022/01/06 02:27:09;;;;;;;;;;;6.50;85.00;;;;;;4934047;28;19926;-61
2022/01/06 02:29:35;;;;;;;;;;;6.50;85.00;;;;;;4916600;29;20355;-61
2022/01/06 02:32:05;;;;;;;;;;;6.50;85.00;;;;;;4939641;28;19973;-61
2022/01/06 02:34:31;;;;;;;;;;;6.50;85.00;;;;;;4948240;29;19946;-61
2022/01/06 02:36:56;;;;;;;;;;;6.50;85.00;;;;;;4949292;28;20011;-61
2022/01/06 02:39:22;;;;;;;;;;;6.50;84.90;;;;;;4967447;28;19921;-61
2022/01/06 02:41:47;;;;;;;;;;;6.50;84.90;;;;;;4933238;28;19921;-61
2022/01/06 02:44:13;;;;;;;;;;;6.50;84.90;;;;;;4950839;29;20335;-61
2022/01/06 02:46:40;;;;;;;;;;;6.50;84.90;;;;;;4938536;28;19922;-61
2022/01/06 02:49:05;;;;;;;;;;;6.40;84.80;;;;;;4935392;29;19915;-61
2022/01/06 02:51:31;;;;;;;;;;;6.40;84.90;;;;;;4950939;28;19917;-61
2022/01/06 02:53:56;;;;;;;;;;;6.50;84.90;;;;;;4934653;29;19953;-61
2022/01/06 02:56:21;;;;;;;;;;;6.40;85.00;;;;;;4944935;28;20334;-61
2022/01/06 02:58:47;;;;;;;;;;;6.50;85.30;;;;;;4955153;28;19910;-61
2022/01/06 03:01:12;;;;;;;;;;;6.50;85.50;;;;;;4943531;28;20063;-61
2022/01/06 03:03:38;;;;;;;;;;;6.50;86.20;;;;;;4935817;29;19919;-61
2022/01/06 03:06:03;;;;;;;;;;;6.40;85.50;;;;;;4950121;29;20278;-60
2022/01/06 03:08:29;;;;;;;;;;;6.40;85.60;;;;;;4935453;29;19914;-61
2022/01/06 03:10:56;;;;;;;;;;;6.40;85.70;;;;;;4935292;29;20255;-61
2022/01/06 03:13:22;;;;;;;;;;;6.40;85.70;;;;;;4935340;29;19911;-61
2022/01/06 03:15:47;;;;;;;;;;;6.40;85.70;;;;;;4935448;28;20326;-61
2022/01/06 03:18:13;;;;;;;;;;;6.40;85.60;;;;;;4949256;29;19929;-61
2022/01/06 03:20:38;;;;;;;;;;;6.40;85.60;;;;;;4927823;29;19923;-61
2022/01/06 03:23:04;;;;;;;;;;;6.40;85.70;;;;;;4947246;29;19946;-61
2022/01/06 03:25:29;;;;;;;;;;;6.40;85.80;;;;;;4944989;29;20315;-61
2022/01/06 03:27:55;;;;;;;;;;;6.40;85.90;;;;;;4934922;29;19964;-61
2022/01/06 03:30:21;;;;;;;;;;;6.40;85.90;;;;;;4944210;29;20339;-61
2022/01/06 03:32:46;;;;;;;;;;;6.40;85.90;;;;;;4935270;29;20375;-61
2022/01/06 03:35:13;;;;;;;;;;;6.40;85.90;;;;;;4950974;29;19910;-61
2022/01/06 03:37:39;;;;;;;;;;;6.40;85.80;;;;;;4936496;29;19911;-61
2022/01/06 03:40:05;;;;;;;;;;;6.40;85.90;;;;;;4950349;28;19961;-61
2022/01/06 03:42:31;;;;;;;;;;;6.40;85.90;;;;;;4944616;29;20397;-61
2022/01/06 03:44:57;;;;;;;;;;;6.40;85.90;;;;;;4944760;29;19918;-61
2022/01/06 03:47:22;;;;;;;;;;;6.20;86.00;;;;;;4918943;29;20266;-61
2022/01/06 03:49:48;;;;;;;;;;;6.40;86.00;;;;;;4935348;28;19980;-61
2022/01/06 03:52:13;;;;;;;;;;;6.40;86.00;;;;;;4935720;29;19919;-61
2022/01/06 03:54:39;;;;;;;;;;;6.40;86.60;;;;;;4919845;28;20315;-61
2022/01/06 03:57:04;;;;;;;;;;;6.30;86.00;;;;;;4919934;29;19993;-61
2022/01/06 03:59:29;;;;;;;;;;;6.40;86.10;;;;;;4934714;29;19915;-61
2022/01/06 04:01:55;;;;;;;;;;;6.40;86.70;;;;;;4934141;29;20326;-61
2022/01/06 04:04:20;;;;;;;;;;;6.40;86.60;;;;;;4934960;29;19918;-61
2022/01/06 04:06:46;;;;;;;;;;;6.40;86.40;;;;;;4918391;29;19915;-61
2022/01/06 04:09:11;;;;;;;;;;;6.40;86.40;;;;;;4918667;29;19962;-61
2022/01/06 04:11:37;;;;;;;;;;;6.30;86.40;;;;;;4926822;29;20347;-61
2022/01/06 04:14:02;;;;;;;;;;;6.30;86.40;;;;;;4934791;29;19911;-61
2022/01/06 04:16:29;;;;;;;;;;;6.30;86.50;;;;;;4933479;29;20004;-61
2022/01/06 04:18:55;;;;;;;;;;;6.30;86.60;;;;;;4918542;29;20112;-62
2022/01/06 04:21:20;;;;;;;;;;;6.30;86.60;;;;;;4941124;28;19917;-61
2022/01/06 04:23:47;;;;;;;;;;;6.30;86.70;;;;;;4916117;29;19921;-61
2022/01/06 04:26:13;;;;;;;;;;;6.30;86.70;;;;;;4933689;29;19942;-61
2022/01/06 04:28:39;;;;;;;;;;;6.30;86.60;;;;;;4934878;29;19965;-61
2022/01/06 04:31:04;;;;;;;;;;;6.30;86.80;;;;;;4917251;29;19910;-61
2022/01/06 04:33:29;;;;;;;;;;;6.30;86.80;;;;;;4918766;29;20379;-61
2022/01/06 04:35:55;;;;;;;;;;;6.30;86.80;;;;;;4919185;29;19911;-61
2022/01/06 04:38:22;;;;;;;;;;;6.20;86.80;;;;;;4918580;29;20347;-62
2022/01/06 04:40:47;;;;;;;;;;;6.20;86.80;;;;;;4938442;28;19910;-61
2022/01/06 04:43:13;;;;;;;;;;;6.30;86.80;;;;;;4940862;29;19911;-61
2022/01/06 04:45:38;;;;;;;;;;;6.20;86.80;;;;;;4918126;28;19918;-62
2022/01/06 04:48:04;;;;;;;;;;;6.30;86.90;;;;;;4910062;29;19933;-61
2022/01/06 04:50:29;;;;;;;;;;;6.20;86.90;;;;;;4918555;28;20283;-62
2022/01/06 04:52:54;;;;;;;;;;;6.20;86.90;;;;;;4956787;28;19910;-61
2022/01/06 04:55:20;;;;;;;;;;;6.20;86.90;;;;;;4945294;28;19910;-61
2022/01/06 04:57:45;;;;;;;;;;;6.20;86.90;;;;;;4917685;29;19911;-62
2022/01/06 05:00:11;;;;;;;;;;;6.20;86.90;;;;;;4943973;28;19966;-62
2022/01/06 05:02:36;;;;;;;;;;;6.20;86.90;;;;;;4910057;29;19910;-61
2022/01/06 05:05:02;;;;;;;;;;;6.20;86.90;;;;;;4930005;28;19929;-61
2022/01/06 05:07:27;;;;;;;;;;;6.20;87.00;;;;;;4930155;29;19933;-61
2022/01/06 05:09:53;;;;;;;;;;;6.20;87.00;;;;;;4926905;28;20287;-61
2022/01/06 05:12:18;;;;;;;;;;;6.20;86.90;;;;;;4910148;29;19923;-62
2022/01/06 05:14:44;;;;;;;;;;;6.20;86.90;;;;;;4922640;28;19921;-61
2022/01/06 05:17:09;;;;;;;;;;;6.20;86.90;;;;;;4923114;29;19922;-61
2022/01/06 05:19:35;;;;;;;;;;;6.20;87.00;;;;;;4915708;29;19933;-61
2022/01/06 05:22:00;;;;;;;;;;;6.20;86.90;;;;;;4930078;29;19910;-62
2022/01/06 05:24:26;;;;;;;;;;;6.10;86.90;;;;;;4908595;28;19915;-61
2022/01/06 05:26:54;;;;;;;;;;;6.20;87.00;;;;;;4926888;29;20013;-61
2022/01/06 05:29:20;;;;;;;;;;;6.20;87.10;;;;;;4934155;28;19938;-61
2022/01/06 05:31:45;;;;;;;;;;;6.20;87.10;;;;;;4940473;28;19914;-61
2022/01/06 05:34:11;;;;;;;;;;;6.20;87.10;;;;;;4916509;28;19914;-61
2022/01/06 05:36:36;;;;;;;;;;;6.20;87.10;;;;;;4911336;28;20325;-61
2022/01/06 05:39:02;;;;;;;;;;;6.20;87.10;;;;;;4921657;29;19911;-61
2022/01/06 05:41:27;;;;;;;;;;;6.10;87.00;;;;;;4925299;28;19914;-60
2022/01/06 05:43:53;;;;;;;;;;;6.20;87.00;;;;;;4918125;28;19914;-61
2022/01/06 05:46:18;;;;;;;;;;;6.10;87.00;;;;;;4946368;28;20442;-61
2022/01/06 05:48:44;;;;;;;;;;;6.20;87.00;;;;;;4953984;28;20705;-61
2022/01/06 05:51:10;;;;;;;;;;;6.10;86.90;;;;;;4927007;28;19934;-61
2022/01/06 05:53:35;;;;;;;;;;;6.10;87.00;;;;;;4939481;28;19915;-61
2022/01/06 05:56:01;;;;;;;;;;;6.10;87.00;;;;;;4908710;29;19911;-61
2022/01/06 05:58:26;;;;;;;;;;;6.20;87.10;;;;;;4909232;28;19911;-61
2022/01/06 06:00:51;;;;;;;;;;;6.10;87.10;;;;;;4942689;29;20362;-61
2022/01/06 06:03:17;;;;;;;;;;;6.10;87.10;;;;;;4924235;28;19911;-61
2022/01/06 06:05:42;;;;;;;;;;;6.10;87.10;;;;;;4909844;29;19922;-61
2022/01/06 06:08:08;;;;;;;;;;;6.10;87.10;;;;;;4909226;28;19914;-61
2022/01/06 06:10:34;;;;;;;;;;;6.10;87.10;;;;;;4925064;29;19917;-61
2022/01/06 06:12:59;;;;;;;;;;;6.10;87.20;;;;;;4909939;28;19915;-61
2022/01/06 06:15:25;;;;;;;;;;;6.10;87.30;;;;;;4936886;28;20413;-61
2022/01/06 06:17:50;;;;;;;;;;;6.10;87.30;;;;;;4930491;28;19919;-61
2022/01/06 06:20:16;;;;;;;;;;;6.10;87.20;;;;;;4928506;29;19933;-61
2022/01/06 06:22:41;;;;;;;;;;;6.10;87.30;;;;;;4913095;28;19941;-60
2022/01/06 06:25:07;;;;;;;;;;;6.00;87.20;;;;;;4935753;28;19910;-61
2022/01/06 06:27:32;;;;;;;;;;;6.10;87.30;;;;;;4925374;28;20785;-60
2022/01/06 06:29:58;;;;;;;;;;;6.10;87.30;;;;;;4935891;28;19981;-60
2022/01/06 06:32:25;;;;;;;;;;;6.10;87.20;;;;;;4945727;28;20441;-60
2022/01/06 06:34:52;;;;;;;;;;;6.10;87.20;;;;;;4923027;28;19941;-61
2022/01/06 06:37:18;;;;;;;;;;;6.10;87.30;;;;;;4923439;29;20370;-61
2022/01/06 06:39:43;;;;;;;;;;;6.10;87.20;;;;;;4938899;28;20001;-61
2022/01/06 06:42:09;;;;;;;;;;;6.10;87.20;;;;;;4960977;28;19957;-61
2022/01/06 06:44:34;;;;;;;;;;;6.10;87.30;;;;;;4940015;28;19922;-62
2022/01/06 06:47:00;;;;;;;;;;;6.00;87.30;;;;;;4929203;29;20565;-62
2022/01/06 06:49:25;;;;;;;;;;;6.10;87.40;;;;;;4929819;28;19992;-61
2022/01/06 06:51:50;;;;;;;;;;;6.10;87.40;;;;;;4943192;28;19917;-62
2022/01/06 06:54:16;;;;;;;;;;;6.00;87.40;;;;;;4923585;28;19934;-61
2022/01/06 06:56:42;;;;;;;;;;;6.00;87.40;;;;;;4945314;28;20306;-60
2022/01/06 06:59:07;;;;;;;;;;;6.00;87.40;;;;;;4936840;28;19918;-61
2022/01/06 07:01:33;;;;;;;;;;;6.00;87.40;;;;;;4948534;29;19911;-61
2022/01/06 07:03:58;;;;;;;;;;;6.00;87.40;;;;;;4937553;29;20037;-61
2022/01/06 07:06:24;;;;;;;;;;;6.00;87.40;;;;;;4915616;29;20276;-61
2022/01/06 07:08:49;;;;;;;;;;;6.00;87.40;;;;;;4936477;28;20293;-61
2022/01/06 07:11:14;;;;;;;;;;;6.00;87.50;;;;;;4919193;29;19915;-61
2022/01/06 07:13:40;;;;;;;;;;;6.00;87.40;;;;;;4934610;29;19965;-61
2022/01/06 07:16:05;;;;;;;;;;;6.00;87.50;;;;;;4924450;28;19929;-62
2022/01/06 07:18:31;;;;;;;;;;;6.00;87.50;;;;;;4917292;29;19918;-61
2022/01/06 07:20:57;;;;;;;;;;;6.00;87.50;;;;;;4953797;28;19968;-61
2022/01/06 07:23:23;;;;;;;;;;;6.00;87.40;;;;;;4939511;29;19940;-61
2022/01/06 07:25:48;;;;;;;;;;;5.90;87.50;;;;;;4917924;28;20013;-61
2022/01/06 07:28:14;;;;;;;;;;;6.00;87.50;;;;;;4907948;28;19918;-61
2022/01/06 07:30:39;;;;;;;;;;;5.90;87.50;;;;;;4942834;28;19914;-62
2022/01/06 07:33:05;;;;;;;;;;;6.00;87.50;;;;;;4913327;28;19918;-61
2022/01/06 07:35:30;;;;;;;;;;;6.00;87.70;;;;;;4930785;28;19914;-61
2022/01/06 07:37:55;;;;;;;;;;;5.90;87.60;;;;;;4932550;28;20556;-61
2022/01/06 07:40:21;;;;;;;;;;;5.90;87.60;;;;;;4941740;28;19915;-61
2022/01/06 07:42:47;;;;;;;;;;;5.90;87.40;;;;;;4939558;28;19914;-61
2022/01/06 07:45:12;;;;;;;;;;;5.90;87.50;;;;;;4927074;28;19973;-61
2022/01/06 07:47:53;;;;;;;;;;;5.90;87.50;;;;;;4937769;28;19918;-61
2022/01/06 07:50:19;;;;;;;;;;;5.90;87.50;;;;;;4925227;28;19952;-61
2022/01/06 07:52:44;;;;;;;;;;;5.90;87.50;;;;;;4957752;28;19938;-61
2022/01/06 07:55:10;;;;;;;;;;;5.90;87.60;;;;;;4931155;29;20302;-61
2022/01/06 07:57:35;;;;;;;;;;;5.90;87.50;;;;;;4921871;28;19915;-61
2022/01/06 08:00:00;;;;;;;;;;;5.90;87.40;;;;;;4932323;29;19922;-61
2022/01/06 08:02:26;;;;;;;;;;;5.90;87.40;;;;;;4915795;28;20180;-61
2022/01/06 08:04:51;;;;;;;;;;;5.90;87.50;;;;;;4920625;29;20294;-60
2022/01/06 08:07:17;;;;;;;;;;;5.90;87.40;;;;;;4933969;28;19918;-61
2022/01/06 08:09:45;;;;;;;;;;;5.90;87.40;;;;;;4943393;28;19917;-61
2022/01/06 08:12:10;;;;;;;;;;;5.90;87.20;;;;;;4940712;28;19974;-60
2022/01/06 08:14:36;;;;;;;;;;;5.90;87.20;;;;;;4925468;28;19910;-61
2022/01/06 08:17:01;;;;;;;;;;;5.90;87.20;;;;;;4936307;28;19933;-61
2022/01/06 08:19:27;;;;;;;;;;;5.90;87.20;;;;;;4920711;29;19946;-61
2022/01/06 08:21:53;;;;;;;;;;;5.90;87.20;;;;;;4919906;28;19925;-62
2022/01/06 08:24:18;;;;;;;;;;;5.90;87.10;;;;;;4938413;29;19961;-62
2022/01/06 08:26:44;;;;;;;;;;;5.90;87.10;;;;;;4917345;28;19988;-62
2022/01/06 08:29:09;;;;;;;;;;;5.90;87.00;;;;;;4937889;29;19919;-61
2022/01/06 08:31:34;;;;;;;;;;;5.90;87.00;;;;;;4917124;28;19922;-61
2022/01/06 08:34:00;;;;;;;;;;;5.90;86.90;;;;;;4951403;28;20326;-62
2022/01/06 08:36:25;;;;;;;;;;;5.90;87.10;;;;;;4942390;28;19944;-61
2022/01/06 08:38:51;;;;;;;;;;;5.80;87.00;;;;;;4928203;28;20044;-63
2022/01/06 08:41:16;;;;;;;;;;;5.90;87.00;;;;;;4938516;28;19921;-61
2022/01/06 08:43:42;;;;;;;;;;;5.90;87.00;;;;;;4916395;29;19915;-61
2022/01/06 08:46:07;;;;;;;;;;;5.80;86.90;;;;;;4915528;28;19958;-60
2022/01/06 08:48:33;;;;;;;;;;;5.90;86.90;;;;;;4914839;29;19933;-61
2022/01/06 08:50:58;;;;;;;;;;;5.90;86.90;;;;;;4915597;28;19918;-60
2022/01/06 08:53:24;;;;;;;;;;;5.90;86.90;;;;;;4917198;29;19914;-62
2022/01/06 08:55:49;;;;;;;;;;;5.90;86.80;;;;;;4919962;28;19949;-61
2022/01/06 08:58:14;;;;;;;;;;;5.90;86.80;;;;;;4933778;28;20473;-61
2022/01/06 09:00:40;;;;;;;;;;;5.90;86.80;;;;;;4919247;28;19936;-62
2022/01/06 09:03:06;;;;;;;;;;;5.90;86.60;;;;;;4930011;29;20294;-61
2022/01/06 09:05:32;;;;;;;;;;;5.90;86.50;;;;;;4921174;28;19936;-60
2022/01/06 09:07:58;;;;;;;;;;;5.90;86.50;;;;;;4926481;29;20351;-60
2022/01/06 09:10:25;;;;;;;;;;;5.90;86.50;;;;;;4930569;28;19910;-61
2022/01/06 09:12:51;;;;;;;;;;;5.90;86.60;;;;;;4942984;29;19925;-60
2022/01/06 09:15:16;;;;;;;;;;;5.90;86.60;;;;;;4929853;28;20394;-62
2022/01/06 09:17:42;;;;;;;;;;;5.90;86.50;;;;;;4935368;29;19985;-61
2022/01/06 09:20:07;;;;;;;;;;;5.90;86.50;;;;;;4937548;28;19922;-61
2022/01/06 09:22:33;;;;;;;;;;;6.00;86.40;;;;;;4955157;28;19993;-62
2022/01/06 09:24:59;;;;;;;;;;;6.00;86.50;;;;;;4931246;28;20005;-61
2022/01/06 09:27:25;;;;;;;;;;;6.00;86.40;;;;;;4957865;28;20298;-60
2022/01/06 09:29:52;;;;;;;;;;;6.00;86.40;;;;;;4939039;28;19914;-62
2022/01/06 09:32:17;;;;;;;;;;;6.00;86.30;;;;;;4929409;29;20006;-61
2022/01/06 09:34:42;;;;;;;;;;;6.00;86.40;;;;;;4924948;28;20004;-62
2022/01/06 09:37:08;;;;;;;;;;;6.00;86.40;;;;;;4934221;29;20430;-60
2022/01/06 09:39:33;;;;;;;;;;;6.00;86.40;;;;;;4935172;28;19918;-60
2022/01/06 09:41:59;;;;;;;;;;;6.00;86.50;;;;;;4943013;28;19965;-61
2022/01/06 09:44:24;;;;;;;;;;;6.00;86.40;;;;;;4959465;28;19962;-61
2022/01/06 09:46:50;;;;;;;;;;;6.10;86.60;;;;;;4917998;28;20030;-63
2022/01/06 09:49:15;;;;;;;;;;;6.10;86.50;;;;;;4945797;28;19967;-62
2022/01/06 09:51:41;;;;;;;;;;;6.10;86.60;;;;;;4930434;28;19914;-61
2022/01/06 09:54:07;;;;;;;;;;;6.10;86.60;;;;;;4963928;28;19916;-62
2022/01/06 09:56:32;;;;;;;;;;;6.10;86.60;;;;;;4922127;29;19991;-62
2022/01/06 09:58:58;;;;;;;;;;;6.20;86.80;;;;;;4943016;28;20001;-61
2022/01/06 10:01:23;;;;;;;;;;;6.20;86.70;;;;;;4921616;28;19922;-60
2022/01/06 10:03:49;;;;;;;;;;;6.20;86.60;;;;;;4938040;28;19965;-61
2022/01/06 10:06:18;;;;;;;;;;;6.20;86.60;;;;;;4919113;28;19929;-61
2022/01/06 10:08:55;;;;;;;;;;;6.20;86.50;;;;;;4936777;28;19966;-60
2022/01/06 10:11:24;;;;;;;;;;;6.30;87.20;;;;;;4930058;29;19925;-59
2022/01/06 10:13:55;;;;;;;;;;;6.30;86.40;;;;;;4930493;29;19918;-60
2022/01/06 10:16:20;;;;;;;;;;;6.30;86.20;;;;;;4932856;29;19914;-60
2022/01/06 10:18:53;;;;;;;;;;;6.30;86.20;;;;;;4923497;29;20355;-60
2022/01/06 10:21:18;;;;;;;;;;;6.30;86.30;;;;;;4946970;28;19918;-59
2022/01/06 10:23:44;;;;;;;;;;;6.30;86.50;;;;;;4930242;28;19914;-61
2022/01/06 10:26:13;;;;;;;;;;;6.30;86.60;;;;;;4929990;28;20406;-59
2022/01/06 10:28:38;;;;;;;;;;;6.30;86.30;;;;;;4943726;29;19914;-60
2022/01/06 10:31:07;;;;;;;;;;;6.30;86.40;;;;;;4940386;28;19937;-60
2022/01/06 10:33:41;;;;;;;;;;;6.30;86.50;;;;;;4937566;28;20374;-60
2022/01/06 10:36:07;;;;;;;;;;;6.30;86.30;;;;;;4931235;29;19993;-60
2022/01/06 10:38:33;;;;;;;;;;;6.30;86.60;;;;;;4930308;29;20056;-60
2022/01/06 10:41:08;;;;;;;;;;;6.30;86.70;;;;;;4914442;29;19949;-60
2022/01/06 10:43:33;;;;;;;;;;;6.30;86.60;;;;;;4936299;28;19929;-60
2022/01/06 10:46:00;;;;;;;;;;;6.30;86.70;;;;;;4933093;29;19926;-60
2022/01/06 10:48:25;;;;;;;;;;;6.30;86.90;;;;;;4930749;28;20045;-61
2022/01/06 10:50:55;;;;;;;;;;;6.30;87.10;;;;;;4918716;29;19921;-61
2022/01/06 10:53:21;;;;;;;;;;;6.30;87.30;;;;;;4936059;28;19914;-60
2022/01/06 10:55:46;;;;;;;;;;;6.30;87.50;;;;;;4935488;28;19914;-59
2022/01/06 10:58:19;;;;;;;;;;;6.30;87.70;;;;;;4919856;28;19918;-59
2022/01/06 11:00:48;;;;;;;;;;;6.30;87.70;;;;;;4933357;29;19915;-61
2022/01/06 11:03:19;;;;;;;;;;;6.30;87.70;;;;;;4917587;28;19930;-60
2022/01/06 11:05:46;;;;;;;;;;;6.30;88.30;;;;;;4926840;29;19914;-60
2022/01/06 11:08:12;;;;;;;;;;;6.30;87.60;;;;;;4919203;29;19914;-60
2022/01/06 11:10:45;;;;;;;;;;;6.30;87.50;;;;;;4937601;28;19921;-60
2022/01/06 11:13:10;;;;;;;;;;;6.30;87.70;;;;;;4933653;28;20005;-61
2022/01/06 11:15:36;;;;;;;;;;;6.30;87.60;;;;;;4936633;28;20005;-60
2022/01/06 11:18:03;;;;;;;;;;;6.40;87.80;;;;;;4929419;28;19919;-61
2022/01/06 11:20:29;;;;;;;;;;;6.40;87.90;;;;;;4927601;28;20413;-60
2022/01/06 11:22:55;;;;;;;;;;;6.40;87.80;;;;;;4933475;28;19950;-60
2022/01/06 11:25:34;;;;;;;;;;;6.40;87.80;;;;;;4916173;28;20009;-63
2022/01/06 11:28:00;;;;;;;;;;;6.40;87.80;;;;;;4939446;28;20330;-61
2022/01/06 11:30:27;;;;;;;;;;;6.40;87.70;;;;;;4942093;28;19922;-59
2022/01/06 11:32:58;;;;;;;;;;;6.50;88.00;;;;;;4928214;28;19915;-60
2022/01/06 11:35:24;;;;;;;;;;;6.40;88.10;;;;;;4927457;29;19919;-64
2022/01/06 11:37:50;;;;;;;;;;;6.50;88.30;;;;;;4944451;28;19976;-61
2022/01/06 11:40:27;;;;;;;;;;;6.50;88.30;;;;;;4951165;28;20398;-61
2022/01/06 11:42:53;;;;;;;;;;;6.50;88.50;;;;;;4911612;29;19918;-60
2022/01/06 11:45:19;;;;;;;;;;;6.60;88.50;;;;;;4927635;28;20021;-60
2022/01/06 11:47:44;;;;;;;;;;;6.60;88.30;;;;;;4922218;28;19919;-60
2022/01/06 11:50:10;;;;;;;;;;;6.60;88.30;;;;;;4906048;29;19964;-60
2022/01/06 11:52:36;;;;;;;;;;;6.60;88.40;;;;;;4932168;28;20238;-62
2022/01/06 11:55:02;;;;;;;;;;;6.60;88.40;;;;;;4926200;29;20057;-62
2022/01/06 11:57:32;;;;;;;;;;;6.60;88.40;;;;;;4908980;28;19940;-61
2022/01/06 11:59:58;;;;;;;;;;;6.60;88.60;;;;;;4914736;29;20017;-60
2022/01/06 12:02:24;;;;;;;;;;;6.60;88.80;;;;;;4909629;28;20367;-60
2022/01/06 12:04:58;;;;;;;;;;;6.60;89.00;;;;;;4904122;28;19970;-62
2022/01/06 12:07:24;;;;;;;;;;;6.60;89.00;;;;;;4930193;29;20675;-60
2022/01/06 12:09:56;;;;;;;;;;;6.60;89.10;;;;;;4916164;28;20017;-62
2022/01/06 12:12:30;;;;;;;;;;;6.60;89.20;;;;;;4933611;28;19941;-60
2022/01/06 12:15:04;;;;;;;;;;;6.60;89.20;;;;;;4914017;28;20434;-63
2022/01/06 12:17:29;;;;;;;;;;;6.60;89.30;;;;;;4930923;29;19934;-64
2022/01/06 12:19:55;;;;;;;;;;;6.70;89.60;;;;;;4908055;28;19914;-61
2022/01/06 12:22:25;;;;;;;;;;;6.70;89.50;;;;;;4914930;29;20350;-60
2022/01/06 12:25:00;;;;;;;;;;;6.70;89.30;;;;;;4926754;28;19911;-61
2022/01/06 12:27:26;;;;;;;;;;;6.70;89.40;;;;;;4933208;28;19930;-61
2022/01/06 12:29:53;;;;;;;;;;;6.70;89.50;;;;;;4918579;28;20389;-60
2022/01/06 12:32:19;;;;;;;;;;;6.70;89.50;;;;;;4933306;28;19918;-60
2022/01/06 12:34:50;;;;;;;;;;;6.70;89.80;;;;;;4918833;29;19918;-61
2022/01/06 12:37:23;;;;;;;;;;;6.70;89.70;;;;;;4927021;28;19927;-60
2022/01/06 12:39:48;;;;;;;;;;;6.70;89.60;;;;;;4929567;29;19941;-61
2022/01/06 12:42:13;;;;;;;;;;;6.70;89.60;;;;;;4917158;28;19918;-60
2022/01/06 12:44:39;;;;;;;;;;;6.70;89.40;;;;;;4930714;28;20018;-61
2022/01/06 12:47:05;;;;;;;;;;;6.70;89.50;;;;;;4912072;28;19973;-59
2022/01/06 12:49:30;;;;;;;;;;;6.70;89.40;;;;;;4929184;29;19921;-61
2022/01/06 12:51:57;;;;;;;;;;;6.70;89.50;;;;;;4929719;28;19927;-60
2022/01/06 12:54:22;;;;;;;;;;;6.70;89.90;;;;;;4936730;28;20302;-61
2022/01/06 12:56:49;;;;;;;;;;;6.70;89.50;;;;;;4909183;28;20041;-60
2022/01/06 12:59:21;;;;;;;;;;;6.70;89.50;;;;;;4940442;28;19918;-60
2022/01/06 13:01:50;;;;;;;;;;;6.70;89.50;;;;;;4935178;28;20442;-60
2022/01/06 13:04:21;;;;;;;;;;;6.70;89.40;;;;;;4908450;29;20351;-61
2022/01/06 13:06:47;;;;;;;;;;;6.70;89.30;;;;;;4914605;29;20013;-59
2022/01/06 13:09:13;;;;;;;;;;;6.70;89.50;;;;;;4916289;29;20022;-60
2022/01/06 13:11:47;;;;;;;;;;;6.70;89.50;;;;;;4918203;28;19973;-60
2022/01/06 13:14:16;;;;;;;;;;;6.80;89.50;;;;;;4939872;29;19919;-60
2022/01/06 13:16:42;;;;;;;;;;;6.80;89.70;;;;;;4932104;28;19993;-60
2022/01/06 13:19:12;;;;;;;;;;;6.80;89.90;;;;;;4929120;29;19915;-62
2022/01/06 13:21:43;;;;;;;;;;;6.80;89.80;;;;;;4918671;28;20032;-63
2022/01/06 13:24:16;;;;;;;;;;;6.80;89.90;;;;;;4923531;28;19914;-62
2022/01/06 13:26:51;;;;;;;;;;;6.90;90.00;;;;;;4918343;29;20661;-63
2022/01/06 13:29:23;;;;;;;;;;;6.90;90.00;;;;;;4932843;28;20382;-62
2022/01/06 13:31:58;;;;;;;;;;;6.90;90.00;;;;;;4929297;29;19922;-60
2022/01/06 13:34:23;;;;;;;;;;;6.90;89.70;;;;;;4949737;28;19969;-59
2022/01/06 13:36:49;;;;;;;;;;;6.90;89.70;;;;;;4928167;28;19972;-60
2022/01/06 13:39:14;;;;;;;;;;;7.00;89.50;;;;;;4935422;28;19914;-60
2022/01/06 13:41:40;;;;;;;;;;;7.00;89.50;;;;;;4937317;29;20355;-60
2022/01/06 13:44:08;;;;;;;;;;;7.00;89.30;;;;;;4935671;28;19914;-61
2022/01/06 13:46:50;;;;;;;;;;;7.00;89.40;;;;;;4918578;29;20010;-60
2022/01/06 13:52:00;;;;;;;;;;;7.10;89.30;;;;;;4937518;28;19921;-60
2022/01/06 13:54:28;;;;;;;;;;;7.10;89.50;;;;;;4920447;28;19918;-61
2022/01/06 13:56:53;;;;;;;;;;;7.10;89.40;;;;;;4918276;29;20431;-60
2022/01/06 13:59:19;;;;;;;;;;;7.20;89.80;;;;;;4916311;28;19928;-60
2022/01/06 14:01:45;;;;;;;;;;;7.10;89.90;;;;;;4910898;28;19918;-60
2022/01/06 14:04:20;;;;;;;;;;;7.10;89.80;;;;;;4910412;29;19911;-60
2022/01/06 14:06:45;;;;;;;;;;;7.20;89.70;;;;;;4911916;29;19933;-61
2022/01/06 14:09:11;;;;;;;;;;;7.20;89.80;;;;;;4908049;28;19918;-62
2022/01/06 14:11:36;;;;;;;;;;;7.20;89.80;;;;;;4933696;29;20420;-59
2022/01/06 14:14:02;;;;;;;;;;;7.30;89.80;;;;;;4916417;28;19922;-60
2022/01/06 14:16:27;;;;;;;;;;;7.30;89.70;;;;;;4909959;29;20393;-60
2022/01/06 14:18:53;;;;;;;;;;;7.30;89.50;;;;;;4910028;28;19929;-60
2022/01/06 14:21:18;;;;;;;;;;;7.30;89.50;;;;;;4911108;28;19914;-61
2022/01/06 14:23:44;;;;;;;;;;;7.40;89.50;;;;;;4913010;28;20068;-60
2022/01/06 14:26:09;;;;;;;;;;;7.40;89.60;;;;;;4932652;29;19922;-60
2022/01/06 14:28:35;;;;;;;;;;;7.40;89.70;;;;;;4913002;28;20013;-60
2022/01/06 14:31:04;;;;;;;;;;;7.40;89.40;;;;;;4911309;29;19958;-60
2022/01/06 14:33:33;;;;;;;;;;;7.40;89.40;;;;;;4926106;29;19926;-59
2022/01/06 14:35:58;;;;;;;;;;;7.40;89.30;;;;;;4915291;28;20355;-60
2022/01/06 14:38:24;;;;;;;;;;;7.40;89.40;;;;;;4930927;29;19922;-60